sensor_id;sensor_type;location;lat;lon;timestamp;P1;durP1;ratioP1;P2;durP2;ratioP2
16522;SDS011;19889;52.546;13.348;2024-02-21T00:00:26;10.67;;;4.47;;
16522;SDS011;19889;52.546;13.348;2024-02-21T00:02:54;11.93;;;4.33;;
16522;SDS011;19889;52.546;13.348;2024-02-21T00:05:24;12.97;;;4.50;;
16522;SDS011;19889;52.546;13.348;2024-02-21T00:07:51;11.17;;;4.47;;
16522;SDS011;19889;52.546;13.348;2024-02-21T00:10:18;13.00;;;4.40;;
16522;SDS011;19889;52.546;13.348;2024-02-21T00:12:45;14.77;;;7.87;;
16522;SDS011;19889;52.546;13.348;2024-02-21T00:15:13;11.10;;;5.40;;
16522;SDS011;19889;52.546;13.348;2024-02-21T00:17:40;8.13;;;4.37;;
16522;SDS011;19889;52.546;13.348;2024-02-21T00:20:07;10.80;;;4.43;;
16522;SDS011;19889;52.546;13.348;2024-02-21T00:22:36;6.87;;;4.00;;
16522;SDS011;19889;52.546;13.348;2024-02-21T00:25:03;10.13;;;4.23;;
16522;SDS011;19889;52.546;13.348;2024-02-21T00:27:31;10.67;;;3.77;;
16522;SDS011;19889;52.546;13.348;2024-02-21T00:29:58;5.97;;;3.50;;
16522;SDS011;19889;52.546;13.348;2024-02-21T00:32:25;6.97;;;3.60;;
16522;SDS011;19889;52.546;13.348;2024-02-21T00:34:53;8.83;;;3.70;;
16522;SDS011;19889;52.546;13.348;2024-02-21T00:37:20;10.97;;;3.63;;
16522;SDS011;19889;52.546;13.348;2024-02-21T00:39:49;11.17;;;4.00;;
16522;SDS011;19889;52.546;13.348;2024-02-21T00:42:16;9.23;;;3.83;;
16522;SDS011;19889;52.546;13.348;2024-02-21T00:44:43;9.13;;;3.60;;
16522;SDS011;19889;52.546;13.348;2024-02-21T00:47:10;11.23;;;4.43;;
16522;SDS011;19889;52.546;13.348;2024-02-21T00:49:37;7.83;;;4.00;;
16522;SDS011;19889;52.546;13.348;2024-02-21T00:52:04;9.50;;;4.20;;
16522;SDS011;19889;52.546;13.348;2024-02-21T00:54:34;10.33;;;3.80;;
16522;SDS011;19889;52.546;13.348;2024-02-21T00:57:02;14.03;;;4.17;;
16522;SDS011;19889;52.546;13.348;2024-02-21T00:59:30;10.10;;;3.93;;
16522;SDS011;19889;52.546;13.348;2024-02-21T01:01:57;7.33;;;3.40;;
16522;SDS011;19889;52.546;13.348;2024-02-21T01:04:24;9.07;;;3.20;;
16522;SDS011;19889;52.546;13.348;2024-02-21T01:06:51;11.47;;;3.83;;
16522;SDS011;19889;52.546;13.348;2024-02-21T01:09:18;8.83;;;4.17;;
16522;SDS011;19889;52.546;13.348;2024-02-21T01:11:46;11.20;;;3.67;;
16522;SDS011;19889;52.546;13.348;2024-02-21T01:14:14;10.70;;;3.73;;
16522;SDS011;19889;52.546;13.348;2024-02-21T01:16:41;8.00;;;4.50;;
16522;SDS011;19889;52.546;13.348;2024-02-21T01:19:08;7.97;;;4.03;;
16522;SDS011;19889;52.546;13.348;2024-02-21T01:21:35;8.47;;;3.83;;
16522;SDS011;19889;52.546;13.348;2024-02-21T01:24:03;9.93;;;3.60;;
16522;SDS011;19889;52.546;13.348;2024-02-21T01:26:30;8.70;;;3.73;;
16522;SDS011;19889;52.546;13.348;2024-02-21T01:28:58;9.10;;;3.90;;
16522;SDS011;19889;52.546;13.348;2024-02-21T01:31:26;9.53;;;4.77;;
16522;SDS011;19889;52.546;13.348;2024-02-21T01:33:53;8.20;;;4.07;;
16522;SDS011;19889;52.546;13.348;2024-02-21T01:36:21;11.30;;;3.87;;
16522;SDS011;19889;52.546;13.348;2024-02-21T01:38:48;7.40;;;3.33;;
16522;SDS011;19889;52.546;13.348;2024-02-21T01:41:15;8.60;;;3.77;;
16522;SDS011;19889;52.546;13.348;2024-02-21T01:43:42;7.43;;;3.17;;
16522;SDS011;19889;52.546;13.348;2024-02-21T01:46:10;6.80;;;3.00;;
16522;SDS011;19889;52.546;13.348;2024-02-21T01:48:39;7.67;;;2.90;;
16522;SDS011;19889;52.546;13.348;2024-02-21T01:51:06;5.00;;;2.80;;
16522;SDS011;19889;52.546;13.348;2024-02-21T01:53:34;6.47;;;2.80;;
16522;SDS011;19889;52.546;13.348;2024-02-21T01:56:04;4.27;;;2.40;;
16522;SDS011;19889;52.546;13.348;2024-02-21T01:58:32;4.50;;;2.93;;
16522;SDS011;19889;52.546;13.348;2024-02-21T02:01:02;8.57;;;3.30;;
16522;SDS011;19889;52.546;13.348;2024-02-21T02:03:30;6.10;;;3.20;;
16522;SDS011;19889;52.546;13.348;2024-02-21T02:05:59;6.83;;;3.20;;
16522;SDS011;19889;52.546;13.348;2024-02-21T02:08:26;6.93;;;2.67;;
16522;SDS011;19889;52.546;13.348;2024-02-21T02:10:54;7.90;;;3.73;;
16522;SDS011;19889;52.546;13.348;2024-02-21T02:13:21;6.90;;;2.70;;
16522;SDS011;19889;52.546;13.348;2024-02-21T02:15:48;6.87;;;2.73;;
16522;SDS011;19889;52.546;13.348;2024-02-21T02:18:17;6.07;;;2.97;;
16522;SDS011;19889;52.546;13.348;2024-02-21T02:20:46;4.43;;;2.20;;
16522;SDS011;19889;52.546;13.348;2024-02-21T02:23:18;7.57;;;3.17;;
16522;SDS011;19889;52.546;13.348;2024-02-21T02:25:47;4.33;;;2.30;;
16522;SDS011;19889;52.546;13.348;2024-02-21T02:28:17;4.93;;;2.90;;
16522;SDS011;19889;52.546;13.348;2024-02-21T02:30:44;5.00;;;2.90;;
16522;SDS011;19889;52.546;13.348;2024-02-21T02:33:12;6.27;;;2.30;;
16522;SDS011;19889;52.546;13.348;2024-02-21T02:35:39;5.50;;;2.83;;
16522;SDS011;19889;52.546;13.348;2024-02-21T02:38:06;5.30;;;2.60;;
16522;SDS011;19889;52.546;13.348;2024-02-21T02:40:35;3.70;;;2.67;;
16522;SDS011;19889;52.546;13.348;2024-02-21T02:43:04;7.30;;;3.37;;
16522;SDS011;19889;52.546;13.348;2024-02-21T02:45:32;5.17;;;2.83;;
16522;SDS011;19889;52.546;13.348;2024-02-21T02:47:59;6.90;;;2.73;;
16522;SDS011;19889;52.546;13.348;2024-02-21T02:50:26;5.90;;;2.63;;
16522;SDS011;19889;52.546;13.348;2024-02-21T02:52:54;5.50;;;2.70;;
16522;SDS011;19889;52.546;13.348;2024-02-21T02:55:21;5.77;;;2.70;;
16522;SDS011;19889;52.546;13.348;2024-02-21T02:57:50;5.70;;;3.03;;
16522;SDS011;19889;52.546;13.348;2024-02-21T03:00:17;7.53;;;2.73;;
16522;SDS011;19889;52.546;13.348;2024-02-21T03:02:45;6.50;;;2.40;;
16522;SDS011;19889;52.546;13.348;2024-02-21T03:05:15;5.67;;;2.67;;
16522;SDS011;19889;52.546;13.348;2024-02-21T03:07:43;7.50;;;2.53;;
16522;SDS011;19889;52.546;13.348;2024-02-21T03:10:11;6.83;;;2.43;;
16522;SDS011;19889;52.546;13.348;2024-02-21T03:12:38;11.03;;;4.40;;
16522;SDS011;19889;52.546;13.348;2024-02-21T03:15:08;5.90;;;2.70;;
16522;SDS011;19889;52.546;13.348;2024-02-21T03:17:36;7.83;;;2.93;;
16522;SDS011;19889;52.546;13.348;2024-02-21T03:20:04;9.43;;;3.70;;
16522;SDS011;19889;52.546;13.348;2024-02-21T03:22:34;9.97;;;3.30;;
16522;SDS011;19889;52.546;13.348;2024-02-21T03:25:02;5.37;;;3.13;;
16522;SDS011;19889;52.546;13.348;2024-02-21T03:27:29;7.20;;;3.40;;
16522;SDS011;19889;52.546;13.348;2024-02-21T03:29:56;4.43;;;2.67;;
16522;SDS011;19889;52.546;13.348;2024-02-21T03:32:25;6.20;;;3.10;;
16522;SDS011;19889;52.546;13.348;2024-02-21T03:34:53;7.03;;;2.63;;
16522;SDS011;19889;52.546;13.348;2024-02-21T03:37:21;6.13;;;3.73;;
16522;SDS011;19889;52.546;13.348;2024-02-21T03:39:48;4.43;;;2.60;;
16522;SDS011;19889;52.546;13.348;2024-02-21T03:42:15;9.87;;;4.37;;
16522;SDS011;19889;52.546;13.348;2024-02-21T03:44:42;8.57;;;3.90;;
16522;SDS011;19889;52.546;13.348;2024-02-21T03:47:10;13.10;;;5.23;;
16522;SDS011;19889;52.546;13.348;2024-02-21T03:49:38;9.60;;;3.83;;
16522;SDS011;19889;52.546;13.348;2024-02-21T03:52:06;9.37;;;4.50;;
16522;SDS011;19889;52.546;13.348;2024-02-21T03:54:34;11.33;;;4.47;;
16522;SDS011;19889;52.546;13.348;2024-02-21T03:57:01;5.83;;;4.10;;
16522;SDS011;19889;52.546;13.348;2024-02-21T03:59:29;11.40;;;3.90;;
16522;SDS011;19889;52.546;13.348;2024-02-21T04:01:56;8.23;;;4.30;;
16522;SDS011;19889;52.546;13.348;2024-02-21T04:04:24;7.80;;;3.57;;
16522;SDS011;19889;52.546;13.348;2024-02-21T04:06:52;8.13;;;4.50;;
16522;SDS011;19889;52.546;13.348;2024-02-21T04:09:20;7.57;;;4.50;;
16522;SDS011;19889;52.546;13.348;2024-02-21T04:11:47;13.50;;;4.43;;
16522;SDS011;19889;52.546;13.348;2024-02-21T04:14:14;10.43;;;4.40;;
16522;SDS011;19889;52.546;13.348;2024-02-21T04:16:42;6.70;;;3.70;;
16522;SDS011;19889;52.546;13.348;2024-02-21T04:19:09;7.90;;;4.33;;
16522;SDS011;19889;52.546;13.348;2024-02-21T04:21:36;7.27;;;3.97;;
16522;SDS011;19889;52.546;13.348;2024-02-21T04:24:05;9.23;;;5.00;;
16522;SDS011;19889;52.546;13.348;2024-02-21T04:26:32;8.60;;;4.10;;
16522;SDS011;19889;52.546;13.348;2024-02-21T04:29:00;12.40;;;4.97;;
16522;SDS011;19889;52.546;13.348;2024-02-21T04:31:27;13.03;;;3.90;;
16522;SDS011;19889;52.546;13.348;2024-02-21T04:33:55;8.47;;;4.50;;
16522;SDS011;19889;52.546;13.348;2024-02-21T04:36:23;9.43;;;5.20;;
16522;SDS011;19889;52.546;13.348;2024-02-21T04:38:50;10.80;;;5.97;;
16522;SDS011;19889;52.546;13.348;2024-02-21T04:41:19;8.53;;;5.67;;
16522;SDS011;19889;52.546;13.348;2024-02-21T04:43:46;13.43;;;6.47;;
16522;SDS011;19889;52.546;13.348;2024-02-21T04:46:13;15.23;;;7.43;;
16522;SDS011;19889;52.546;13.348;2024-02-21T04:48:41;13.07;;;6.63;;
16522;SDS011;19889;52.546;13.348;2024-02-21T04:51:08;11.13;;;5.40;;
16522;SDS011;19889;52.546;13.348;2024-02-21T04:53:36;11.33;;;5.77;;
16522;SDS011;19889;52.546;13.348;2024-02-21T04:56:03;15.43;;;7.40;;
16522;SDS011;19889;52.546;13.348;2024-02-21T04:58:32;14.40;;;6.37;;
16522;SDS011;19889;52.546;13.348;2024-02-21T05:00:59;15.40;;;7.63;;
16522;SDS011;19889;52.546;13.348;2024-02-21T05:03:26;10.83;;;5.97;;
16522;SDS011;19889;52.546;13.348;2024-02-21T05:05:54;12.97;;;6.00;;
16522;SDS011;19889;52.546;13.348;2024-02-21T05:08:21;6.90;;;5.80;;
16522;SDS011;19889;52.546;13.348;2024-02-21T05:10:48;9.77;;;4.80;;
16522;SDS011;19889;52.546;13.348;2024-02-21T05:13:16;7.30;;;4.43;;
16522;SDS011;19889;52.546;13.348;2024-02-21T05:15:44;11.57;;;4.70;;
16522;SDS011;19889;52.546;13.348;2024-02-21T05:18:11;9.40;;;4.83;;
16522;SDS011;19889;52.546;13.348;2024-02-21T05:20:39;7.53;;;4.40;;
16522;SDS011;19889;52.546;13.348;2024-02-21T05:23:06;16.20;;;7.77;;
16522;SDS011;19889;52.546;13.348;2024-02-21T05:25:33;16.17;;;8.27;;
16522;SDS011;19889;52.546;13.348;2024-02-21T05:28:00;14.63;;;6.87;;
16522;SDS011;19889;52.546;13.348;2024-02-21T05:30:28;14.33;;;6.23;;
16522;SDS011;19889;52.546;13.348;2024-02-21T05:32:57;11.23;;;5.77;;
16522;SDS011;19889;52.546;13.348;2024-02-21T05:35:25;15.33;;;6.97;;
16522;SDS011;19889;52.546;13.348;2024-02-21T05:37:53;10.47;;;6.37;;
16522;SDS011;19889;52.546;13.348;2024-02-21T05:40:20;19.57;;;10.50;;
16522;SDS011;19889;52.546;13.348;2024-02-21T05:42:48;14.47;;;7.70;;
16522;SDS011;19889;52.546;13.348;2024-02-21T05:45:16;12.07;;;6.43;;
16522;SDS011;19889;52.546;13.348;2024-02-21T05:47:43;11.83;;;6.67;;
16522;SDS011;19889;52.546;13.348;2024-02-21T05:50:12;10.57;;;5.60;;
16522;SDS011;19889;52.546;13.348;2024-02-21T05:52:39;13.40;;;6.30;;
16522;SDS011;19889;52.546;13.348;2024-02-21T05:55:07;12.03;;;6.23;;
16522;SDS011;19889;52.546;13.348;2024-02-21T05:57:35;13.50;;;6.40;;
16522;SDS011;19889;52.546;13.348;2024-02-21T06:00:03;14.80;;;6.67;;
16522;SDS011;19889;52.546;13.348;2024-02-21T06:02:37;13.23;;;6.93;;
16522;SDS011;19889;52.546;13.348;2024-02-21T06:05:05;11.83;;;6.10;;
16522;SDS011;19889;52.546;13.348;2024-02-21T06:07:35;12.73;;;6.20;;
16522;SDS011;19889;52.546;13.348;2024-02-21T06:10:03;11.47;;;6.60;;
16522;SDS011;19889;52.546;13.348;2024-02-21T06:12:30;12.60;;;6.43;;
16522;SDS011;19889;52.546;13.348;2024-02-21T06:14:58;12.20;;;6.80;;
16522;SDS011;19889;52.546;13.348;2024-02-21T06:17:25;16.20;;;6.60;;
16522;SDS011;19889;52.546;13.348;2024-02-21T06:19:52;19.57;;;7.23;;
16522;SDS011;19889;52.546;13.348;2024-02-21T06:22:19;15.73;;;6.77;;
16522;SDS011;19889;52.546;13.348;2024-02-21T06:24:48;13.13;;;7.00;;
16522;SDS011;19889;52.546;13.348;2024-02-21T06:27:16;15.53;;;7.13;;
16522;SDS011;19889;52.546;13.348;2024-02-21T06:29:43;13.57;;;8.00;;
16522;SDS011;19889;52.546;13.348;2024-02-21T06:32:10;21.87;;;12.87;;
16522;SDS011;19889;52.546;13.348;2024-02-21T06:34:38;11.43;;;8.10;;
16522;SDS011;19889;52.546;13.348;2024-02-21T06:37:05;11.20;;;6.57;;
16522;SDS011;19889;52.546;13.348;2024-02-21T06:39:32;9.50;;;6.00;;
16522;SDS011;19889;52.546;13.348;2024-02-21T06:42:04;10.67;;;5.73;;
16522;SDS011;19889;52.546;13.348;2024-02-21T06:44:31;10.17;;;5.37;;
16522;SDS011;19889;52.546;13.348;2024-02-21T06:47:05;12.10;;;6.33;;
16522;SDS011;19889;52.546;13.348;2024-02-21T06:49:34;9.90;;;6.20;;
16522;SDS011;19889;52.546;13.348;2024-02-21T06:52:02;10.43;;;5.13;;
16522;SDS011;19889;52.546;13.348;2024-02-21T06:54:30;13.07;;;5.87;;
16522;SDS011;19889;52.546;13.348;2024-02-21T06:56:58;11.97;;;6.03;;
16522;SDS011;19889;52.546;13.348;2024-02-21T06:59:29;8.47;;;5.37;;
16522;SDS011;19889;52.546;13.348;2024-02-21T07:01:56;9.60;;;6.17;;
16522;SDS011;19889;52.546;13.348;2024-02-21T07:04:25;11.87;;;6.23;;
16522;SDS011;19889;52.546;13.348;2024-02-21T07:06:52;9.40;;;6.17;;
16522;SDS011;19889;52.546;13.348;2024-02-21T07:09:19;12.97;;;7.50;;
16522;SDS011;19889;52.546;13.348;2024-02-21T07:11:46;10.63;;;6.27;;
16522;SDS011;19889;52.546;13.348;2024-02-21T07:14:14;9.20;;;5.90;;
16522;SDS011;19889;52.546;13.348;2024-02-21T07:16:43;7.30;;;4.90;;
16522;SDS011;19889;52.546;13.348;2024-02-21T07:19:11;7.63;;;5.23;;
16522;SDS011;19889;52.546;13.348;2024-02-21T07:21:38;7.37;;;5.27;;
16522;SDS011;19889;52.546;13.348;2024-02-21T07:24:07;7.57;;;5.03;;
16522;SDS011;19889;52.546;13.348;2024-02-21T07:26:34;8.20;;;4.70;;
16522;SDS011;19889;52.546;13.348;2024-02-21T07:29:01;11.57;;;5.47;;
16522;SDS011;19889;52.546;13.348;2024-02-21T07:31:29;9.37;;;6.30;;
16522;SDS011;19889;52.546;13.348;2024-02-21T07:33:57;14.07;;;6.70;;
16522;SDS011;19889;52.546;13.348;2024-02-21T07:36:27;10.33;;;6.90;;
16522;SDS011;19889;52.546;13.348;2024-02-21T07:38:55;10.70;;;7.17;;
16522;SDS011;19889;52.546;13.348;2024-02-21T07:41:23;10.90;;;6.13;;
16522;SDS011;19889;52.546;13.348;2024-02-21T07:43:50;10.00;;;6.33;;
16522;SDS011;19889;52.546;13.348;2024-02-21T07:46:18;13.93;;;6.80;;
16522;SDS011;19889;52.546;13.348;2024-02-21T07:48:45;12.83;;;6.23;;
16522;SDS011;19889;52.546;13.348;2024-02-21T07:51:14;8.30;;;5.10;;
16522;SDS011;19889;52.546;13.348;2024-02-21T07:53:44;10.50;;;6.40;;
16522;SDS011;19889;52.546;13.348;2024-02-21T07:56:12;10.70;;;5.83;;
16522;SDS011;19889;52.546;13.348;2024-02-21T07:58:41;7.37;;;5.20;;
16522;SDS011;19889;52.546;13.348;2024-02-21T08:01:08;17.07;;;10.37;;
16522;SDS011;19889;52.546;13.348;2024-02-21T08:03:36;17.13;;;8.80;;
16522;SDS011;19889;52.546;13.348;2024-02-21T08:06:03;12.33;;;7.43;;
16522;SDS011;19889;52.546;13.348;2024-02-21T08:08:32;10.47;;;5.73;;
16522;SDS011;19889;52.546;13.348;2024-02-21T08:10:59;10.83;;;5.03;;
16522;SDS011;19889;52.546;13.348;2024-02-21T08:13:27;6.97;;;4.87;;
16522;SDS011;19889;52.546;13.348;2024-02-21T08:15:55;9.93;;;5.20;;
16522;SDS011;19889;52.546;13.348;2024-02-21T08:18:22;10.10;;;5.43;;
16522;SDS011;19889;52.546;13.348;2024-02-21T08:20:49;8.93;;;5.47;;
16522;SDS011;19889;52.546;13.348;2024-02-21T08:23:18;8.67;;;5.43;;
16522;SDS011;19889;52.546;13.348;2024-02-21T08:25:47;7.27;;;5.00;;
16522;SDS011;19889;52.546;13.348;2024-02-21T08:28:15;7.17;;;4.97;;
16522;SDS011;19889;52.546;13.348;2024-02-21T08:30:42;8.60;;;5.60;;
16522;SDS011;19889;52.546;13.348;2024-02-21T08:33:13;5.87;;;4.13;;
16522;SDS011;19889;52.546;13.348;2024-02-21T08:35:41;6.03;;;5.00;;
16522;SDS011;19889;52.546;13.348;2024-02-21T08:38:09;5.13;;;4.53;;
16522;SDS011;19889;52.546;13.348;2024-02-21T08:40:36;6.57;;;4.53;;
16522;SDS011;19889;52.546;13.348;2024-02-21T08:43:05;7.67;;;4.83;;
16522;SDS011;19889;52.546;13.348;2024-02-21T08:45:32;9.37;;;4.83;;
16522;SDS011;19889;52.546;13.348;2024-02-21T08:47:59;7.93;;;4.80;;
16522;SDS011;19889;52.546;13.348;2024-02-21T08:50:27;6.73;;;4.60;;
16522;SDS011;19889;52.546;13.348;2024-02-21T08:52:54;7.70;;;5.03;;
16522;SDS011;19889;52.546;13.348;2024-02-21T08:55:22;9.03;;;4.87;;
16522;SDS011;19889;52.546;13.348;2024-02-21T08:57:49;9.43;;;5.20;;
16522;SDS011;19889;52.546;13.348;2024-02-21T09:00:18;5.87;;;4.80;;
16522;SDS011;19889;52.546;13.348;2024-02-21T09:02:52;6.80;;;4.53;;
16522;SDS011;19889;52.546;13.348;2024-02-21T09:05:21;7.77;;;4.20;;
16522;SDS011;19889;52.546;13.348;2024-02-21T09:07:49;9.37;;;5.87;;
16522;SDS011;19889;52.546;13.348;2024-02-21T09:10:16;7.50;;;4.90;;
16522;SDS011;19889;52.546;13.348;2024-02-21T09:12:44;7.63;;;4.90;;
16522;SDS011;19889;52.546;13.348;2024-02-21T09:15:11;8.03;;;4.90;;
16522;SDS011;19889;52.546;13.348;2024-02-21T09:17:40;7.60;;;5.30;;
16522;SDS011;19889;52.546;13.348;2024-02-21T09:20:07;7.33;;;5.53;;
16522;SDS011;19889;52.546;13.348;2024-02-21T09:22:37;9.13;;;5.73;;
16522;SDS011;19889;52.546;13.348;2024-02-21T09:25:05;11.23;;;5.77;;
16522;SDS011;19889;52.546;13.348;2024-02-21T09:27:33;11.60;;;5.00;;
16522;SDS011;19889;52.546;13.348;2024-02-21T09:30:00;8.07;;;5.93;;
16522;SDS011;19889;52.546;13.348;2024-02-21T09:32:29;7.97;;;5.40;;
16522;SDS011;19889;52.546;13.348;2024-02-21T09:34:59;9.23;;;4.97;;
16522;SDS011;19889;52.546;13.348;2024-02-21T09:37:26;7.77;;;5.83;;
16522;SDS011;19889;52.546;13.348;2024-02-21T09:39:53;8.07;;;4.97;;
16522;SDS011;19889;52.546;13.348;2024-02-21T09:42:21;7.73;;;5.70;;
16522;SDS011;19889;52.546;13.348;2024-02-21T09:44:48;6.50;;;4.53;;
16522;SDS011;19889;52.546;13.348;2024-02-21T09:47:17;8.47;;;4.77;;
16522;SDS011;19889;52.546;13.348;2024-02-21T09:49:49;8.67;;;4.90;;
16522;SDS011;19889;52.546;13.348;2024-02-21T09:52:19;7.63;;;5.20;;
16522;SDS011;19889;52.546;13.348;2024-02-21T09:54:47;11.87;;;5.93;;
16522;SDS011;19889;52.546;13.348;2024-02-21T09:57:14;8.07;;;5.83;;
16522;SDS011;19889;52.546;13.348;2024-02-21T09:59:42;7.57;;;5.20;;
16522;SDS011;19889;52.546;13.348;2024-02-21T10:02:11;6.47;;;5.47;;
16522;SDS011;19889;52.546;13.348;2024-02-21T10:04:39;7.87;;;5.20;;
16522;SDS011;19889;52.546;13.348;2024-02-21T10:07:06;9.17;;;5.90;;
16522;SDS011;19889;52.546;13.348;2024-02-21T10:09:36;8.90;;;5.70;;
16522;SDS011;19889;52.546;13.348;2024-02-21T10:12:09;7.93;;;6.27;;
16522;SDS011;19889;52.546;13.348;2024-02-21T10:14:37;8.47;;;5.40;;
16522;SDS011;19889;52.546;13.348;2024-02-21T10:17:04;6.47;;;4.90;;
16522;SDS011;19889;52.546;13.348;2024-02-21T10:19:35;9.27;;;5.90;;
16522;SDS011;19889;52.546;13.348;2024-02-21T10:22:03;7.43;;;5.20;;
16522;SDS011;19889;52.546;13.348;2024-02-21T10:24:33;10.33;;;6.13;;
16522;SDS011;19889;52.546;13.348;2024-02-21T10:27:04;7.30;;;5.43;;
16522;SDS011;19889;52.546;13.348;2024-02-21T10:29:34;10.03;;;5.47;;
16522;SDS011;19889;52.546;13.348;2024-02-21T10:32:05;8.50;;;5.43;;
16522;SDS011;19889;52.546;13.348;2024-02-21T10:34:34;7.40;;;5.73;;
16522;SDS011;19889;52.546;13.348;2024-02-21T10:37:02;7.20;;;5.40;;
16522;SDS011;19889;52.546;13.348;2024-02-21T10:39:31;9.60;;;5.87;;
16522;SDS011;19889;52.546;13.348;2024-02-21T10:41:59;6.40;;;5.03;;
16522;SDS011;19889;52.546;13.348;2024-02-21T10:44:31;8.90;;;5.53;;
16522;SDS011;19889;52.546;13.348;2024-02-21T10:46:59;7.20;;;5.47;;
16522;SDS011;19889;52.546;13.348;2024-02-21T10:49:30;8.37;;;5.20;;
16522;SDS011;19889;52.546;13.348;2024-02-21T10:52:01;5.13;;;4.47;;
16522;SDS011;19889;52.546;13.348;2024-02-21T10:54:39;7.50;;;4.77;;
16522;SDS011;19889;52.546;13.348;2024-02-21T10:57:12;9.70;;;5.40;;
16522;SDS011;19889;52.546;13.348;2024-02-21T10:59:44;7.00;;;5.00;;
16522;SDS011;19889;52.546;13.348;2024-02-21T11:02:13;6.23;;;4.20;;
16522;SDS011;19889;52.546;13.348;2024-02-21T11:04:41;5.10;;;4.33;;
16522;SDS011;19889;52.546;13.348;2024-02-21T11:07:09;6.13;;;4.60;;
16522;SDS011;19889;52.546;13.348;2024-02-21T11:09:38;7.20;;;4.67;;
16522;SDS011;19889;52.546;13.348;2024-02-21T11:12:06;6.73;;;4.60;;
16522;SDS011;19889;52.546;13.348;2024-02-21T11:14:34;6.20;;;4.40;;
16522;SDS011;19889;52.546;13.348;2024-02-21T11:17:15;5.50;;;4.47;;
16522;SDS011;19889;52.546;13.348;2024-02-21T11:19:43;5.30;;;3.87;;
16522;SDS011;19889;52.546;13.348;2024-02-21T11:22:14;5.60;;;4.23;;
16522;SDS011;19889;52.546;13.348;2024-02-21T11:24:42;5.67;;;4.17;;
16522;SDS011;19889;52.546;13.348;2024-02-21T11:27:11;6.03;;;4.20;;
16522;SDS011;19889;52.546;13.348;2024-02-21T11:29:42;6.23;;;4.67;;
16522;SDS011;19889;52.546;13.348;2024-02-21T11:32:10;5.57;;;4.50;;
16522;SDS011;19889;52.546;13.348;2024-02-21T11:34:40;6.67;;;4.50;;
16522;SDS011;19889;52.546;13.348;2024-02-21T11:37:13;4.27;;;3.70;;
16522;SDS011;19889;52.546;13.348;2024-02-21T11:39:42;8.10;;;4.30;;
16522;SDS011;19889;52.546;13.348;2024-02-21T11:42:10;4.20;;;3.80;;
16522;SDS011;19889;52.546;13.348;2024-02-21T11:44:38;5.80;;;3.83;;
16522;SDS011;19889;52.546;13.348;2024-02-21T11:47:07;4.87;;;3.73;;
16522;SDS011;19889;52.546;13.348;2024-02-21T11:49:36;4.00;;;3.60;;
16522;SDS011;19889;52.546;13.348;2024-02-21T11:52:06;4.50;;;3.83;;
16522;SDS011;19889;52.546;13.348;2024-02-21T11:54:34;4.93;;;4.13;;
16522;SDS011;19889;52.546;13.348;2024-02-21T11:57:01;5.23;;;3.70;;
16522;SDS011;19889;52.546;13.348;2024-02-21T11:59:30;5.17;;;3.87;;
16522;SDS011;19889;52.546;13.348;2024-02-21T12:01:58;5.97;;;4.43;;
16522;SDS011;19889;52.546;13.348;2024-02-21T12:04:26;5.47;;;3.80;;
16522;SDS011;19889;52.546;13.348;2024-02-21T12:06:54;3.77;;;3.40;;
16522;SDS011;19889;52.546;13.348;2024-02-21T12:09:26;6.53;;;4.10;;
16522;SDS011;19889;52.546;13.348;2024-02-21T12:11:57;3.60;;;3.30;;
16522;SDS011;19889;52.546;13.348;2024-02-21T12:14:25;4.63;;;3.17;;
16522;SDS011;19889;52.546;13.348;2024-02-21T12:16:55;3.67;;;3.10;;
16522;SDS011;19889;52.546;13.348;2024-02-21T12:19:22;6.37;;;3.10;;
16522;SDS011;19889;52.546;13.348;2024-02-21T12:21:50;3.60;;;3.07;;
16522;SDS011;19889;52.546;13.348;2024-02-21T12:24:21;3.30;;;3.00;;
16522;SDS011;19889;52.546;13.348;2024-02-21T12:26:51;3.20;;;2.90;;
16522;SDS011;19889;52.546;13.348;2024-02-21T12:29:19;3.90;;;2.80;;
16522;SDS011;19889;52.546;13.348;2024-02-21T12:31:46;3.65;;;2.67;;
16522;SDS011;19889;52.546;13.348;2024-02-21T12:34:14;3.73;;;2.90;;
16522;SDS011;19889;52.546;13.348;2024-02-21T12:36:42;3.20;;;2.83;;
16522;SDS011;19889;52.546;13.348;2024-02-21T12:39:10;4.80;;;3.70;;
16522;SDS011;19889;52.546;13.348;2024-02-21T12:41:38;5.87;;;2.83;;
16522;SDS011;19889;52.546;13.348;2024-02-21T12:44:07;3.87;;;3.53;;
16522;SDS011;19889;52.546;13.348;2024-02-21T12:46:34;4.97;;;3.57;;
16522;SDS011;19889;52.546;13.348;2024-02-21T12:49:02;3.73;;;2.83;;
16522;SDS011;19889;52.546;13.348;2024-02-21T12:51:30;3.50;;;2.60;;
16522;SDS011;19889;52.546;13.348;2024-02-21T12:53:58;3.90;;;2.90;;
16522;SDS011;19889;52.546;13.348;2024-02-21T12:56:27;4.67;;;2.73;;
16522;SDS011;19889;52.546;13.348;2024-02-21T12:58:55;3.33;;;2.47;;
16522;SDS011;19889;52.546;13.348;2024-02-21T13:01:24;2.73;;;2.50;;
16522;SDS011;19889;52.546;13.348;2024-02-21T13:03:51;3.33;;;2.92;;
16522;SDS011;19889;52.546;13.348;2024-02-21T13:06:19;2.63;;;2.03;;
16522;SDS011;19889;52.546;13.348;2024-02-21T13:08:47;3.33;;;2.03;;
16522;SDS011;19889;52.546;13.348;2024-02-21T13:11:14;2.47;;;2.00;;
16522;SDS011;19889;52.546;13.348;2024-02-21T13:13:42;2.53;;;2.00;;
16522;SDS011;19889;52.546;13.348;2024-02-21T13:16:10;4.13;;;2.35;;
16522;SDS011;19889;52.546;13.348;2024-02-21T13:18:40;2.90;;;2.57;;
16522;SDS011;19889;52.546;13.348;2024-02-21T13:21:08;2.67;;;2.30;;
16522;SDS011;19889;52.546;13.348;2024-02-21T13:23:36;3.47;;;2.10;;
16522;SDS011;19889;52.546;13.348;2024-02-21T13:26:03;3.23;;;2.10;;
16522;SDS011;19889;52.546;13.348;2024-02-21T13:28:31;2.77;;;2.13;;
16522;SDS011;19889;52.546;13.348;2024-02-21T13:30:58;2.70;;;2.00;;
16522;SDS011;19889;52.546;13.348;2024-02-21T13:33:25;2.40;;;1.90;;
16522;SDS011;19889;52.546;13.348;2024-02-21T13:35:55;3.75;;;2.35;;
16522;SDS011;19889;52.546;13.348;2024-02-21T13:38:22;7.43;;;3.00;;
16522;SDS011;19889;52.546;13.348;2024-02-21T13:40:50;5.20;;;3.07;;
16522;SDS011;19889;52.546;13.348;2024-02-21T13:43:19;4.63;;;3.50;;
16522;SDS011;19889;52.546;13.348;2024-02-21T13:45:57;4.07;;;3.40;;
16522;SDS011;19889;52.546;13.348;2024-02-21T13:48:25;3.67;;;3.13;;
16522;SDS011;19889;52.546;13.348;2024-02-21T13:50:55;3.47;;;2.90;;
16522;SDS011;19889;52.546;13.348;2024-02-21T13:53:23;4.67;;;2.67;;
16522;SDS011;19889;52.546;13.348;2024-02-21T13:55:51;4.40;;;3.23;;
16522;SDS011;19889;52.546;13.348;2024-02-21T13:58:18;4.77;;;3.20;;
16522;SDS011;19889;52.546;13.348;2024-02-21T14:00:46;4.13;;;2.70;;
16522;SDS011;19889;52.546;13.348;2024-02-21T14:03:13;3.10;;;2.53;;
16522;SDS011;19889;52.546;13.348;2024-02-21T14:05:41;4.77;;;2.30;;
16522;SDS011;19889;52.546;13.348;2024-02-21T14:08:10;4.23;;;2.30;;
16522;SDS011;19889;52.546;13.348;2024-02-21T14:10:37;4.87;;;2.67;;
16522;SDS011;19889;52.546;13.348;2024-02-21T14:13:05;3.57;;;2.23;;
16522;SDS011;19889;52.546;13.348;2024-02-21T14:15:32;4.47;;;2.47;;
16522;SDS011;19889;52.546;13.348;2024-02-21T14:18:00;3.47;;;2.63;;
16522;SDS011;19889;52.546;13.348;2024-02-21T14:20:28;2.80;;;2.57;;
16522;SDS011;19889;52.546;13.348;2024-02-21T14:22:56;2.47;;;2.27;;
16522;SDS011;19889;52.546;13.348;2024-02-21T14:25:24;4.20;;;3.10;;
16522;SDS011;19889;52.546;13.348;2024-02-21T14:27:52;3.20;;;2.60;;
16522;SDS011;19889;52.546;13.348;2024-02-21T14:30:19;6.37;;;2.93;;
16522;SDS011;19889;52.546;13.348;2024-02-21T14:32:46;6.27;;;3.03;;
16522;SDS011;19889;52.546;13.348;2024-02-21T14:35:14;8.17;;;3.43;;